sensor_id;sensor_type;location;lat;lon;timestamp;pressure;altitude;pressure_sealevel;temperature;humidity
19112;BME280;9688;51.906;8.376;2022-10-24T00:01:43;99912.31;;;16.16;97.11
19112;BME280;9688;51.906;8.376;2022-10-24T00:04:29;99906.13;;;16.16;97.14
19112;BME280;9688;51.906;8.376;2022-10-24T00:07:14;99903.47;;;16.16;97.42
19112;BME280;9688;51.906;8.376;2022-10-24T00:10:00;99906.97;;;16.16;97.35
19112;BME280;9688;51.906;8.376;2022-10-24T00:12:52;99891.91;;;16.15;97.14
19112;BME280;9688;51.906;8.376;2022-10-24T00:15:42;99906.00;;;16.17;97.19
19112;BME280;9688;51.906;8.376;2022-10-24T00:18:29;99906.22;;;16.14;97.46
19112;BME280;9688;51.906;8.376;2022-10-24T00:21:15;99904.53;;;16.13;96.98
19112;BME280;9688;51.906;8.376;2022-10-24T00:24:01;99899.44;;;16.10;97.36
19112;BME280;9688;51.906;8.376;2022-10-24T00:26:47;99901.22;;;16.10;97.16
19112;BME280;9688;51.906;8.376;2022-10-24T00:29:32;99910.19;;;16.09;97.25
19112;BME280;9688;51.906;8.376;2022-10-24T00:32:18;99905.94;;;16.06;97.80
19112;BME280;9688;51.906;8.376;2022-10-24T00:35:06;99905.31;;;16.02;97.35
19112;BME280;9688;51.906;8.376;2022-10-24T00:37:52;99905.41;;;16.01;97.61
19112;BME280;9688;51.906;8.376;2022-10-24T00:40:37;99897.53;;;15.99;97.71
19112;BME280;9688;51.906;8.376;2022-10-24T00:43:24;99892.31;;;15.98;97.77
19112;BME280;9688;51.906;8.376;2022-10-24T00:46:11;99888.66;;;15.99;98.06
19112;BME280;9688;51.906;8.376;2022-10-24T00:48:56;99891.47;;;15.97;97.76
19112;BME280;9688;51.906;8.376;2022-10-24T00:51:45;99887.94;;;15.97;97.59
19112;BME280;9688;51.906;8.376;2022-10-24T00:54:33;99875.56;;;15.96;97.43
19112;BME280;9688;51.906;8.376;2022-10-24T00:57:24;99886.13;;;15.97;97.93
19112;BME280;9688;51.906;8.376;2022-10-24T01:00:16;99892.44;;;15.96;97.46
19112;BME280;9688;51.906;8.376;2022-10-24T01:03:02;99879.94;;;15.97;97.57
19112;BME280;9688;51.906;8.376;2022-10-24T01:05:58;99883.47;;;15.97;97.40
19112;BME280;9688;51.906;8.376;2022-10-24T01:08:50;99874.72;;;15.95;97.27
19112;BME280;9688;51.906;8.376;2022-10-24T01:11:51;99880.91;;;15.96;97.16
19112;BME280;9688;51.906;8.376;2022-10-24T01:14:46;99867.47;;;15.97;97.58
19112;BME280;9688;51.906;8.376;2022-10-24T01:17:40;99865.66;;;15.98;96.81
19112;BME280;9688;51.906;8.376;2022-10-24T01:20:39;99861.91;;;16.00;97.30
19112;BME280;9688;51.906;8.376;2022-10-24T01:23:49;99851.34;;;15.99;97.20
19112;BME280;9688;51.906;8.376;2022-10-24T01:29:54;99844.09;;;16.01;96.46
19112;BME280;9688;51.906;8.376;2022-10-24T01:32:45;99845.91;;;16.00;96.41
19112;BME280;9688;51.906;8.376;2022-10-24T01:35:36;99845.91;;;16.00;96.50
19112;BME280;9688;51.906;8.376;2022-10-24T01:38:27;99845.28;;;15.97;97.03
19112;BME280;9688;51.906;8.376;2022-10-24T01:41:17;99842.72;;;15.95;96.66
19112;BME280;9688;51.906;8.376;2022-10-24T01:44:06;99845.63;;;15.92;96.79
19112;BME280;9688;51.906;8.376;2022-10-24T01:47:00;99834.22;;;15.90;96.94
19112;BME280;9688;51.906;8.376;2022-10-24T01:49:51;99829.75;;;15.91;96.42
19112;BME280;9688;51.906;8.376;2022-10-24T01:52:42;99827.81;;;15.93;96.69
19112;BME280;9688;51.906;8.376;2022-10-24T01:55:30;99827.81;;;15.93;96.78
19112;BME280;9688;51.906;8.376;2022-10-24T01:58:17;99817.91;;;15.95;96.47
19112;BME280;9688;51.906;8.376;2022-10-24T02:01:07;99824.06;;;15.95;96.09
19112;BME280;9688;51.906;8.376;2022-10-24T02:03:57;99819.59;;;15.96;96.52
19112;BME280;9688;51.906;8.376;2022-10-24T02:06:47;99817.78;;;15.96;95.82
19112;BME280;9688;51.906;8.376;2022-10-24T02:09:34;99816.91;;;15.96;96.28
19112;BME280;9688;51.906;8.376;2022-10-24T02:12:22;99815.13;;;15.96;96.03
19112;BME280;9688;51.906;8.376;2022-10-24T02:15:15;99805.41;;;15.95;96.10
19112;BME280;9688;51.906;8.376;2022-10-24T02:18:03;99806.16;;;15.97;95.71
19112;BME280;9688;51.906;8.376;2022-10-24T02:20:53;99802.66;;;15.97;95.75
19112;BME280;9688;51.906;8.376;2022-10-24T02:23:44;99800.81;;;15.97;95.36
19112;BME280;9688;51.906;8.376;2022-10-24T02:26:33;99798.16;;;15.97;95.11
19112;BME280;9688;51.906;8.376;2022-10-24T02:29:26;99796.34;;;15.98;95.10
19112;BME280;9688;51.906;8.376;2022-10-24T02:32:17;99788.34;;;15.98;95.38
19112;BME280;9688;51.906;8.376;2022-10-24T02:35:06;99783.00;;;15.98;94.63
19112;BME280;9688;51.906;8.376;2022-10-24T02:37:58;99784.94;;;15.96;94.97
19112;BME280;9688;51.906;8.376;2022-10-24T02:40:45;99785.06;;;15.94;94.76
19112;BME280;9688;51.906;8.376;2022-10-24T02:43:33;99785.38;;;15.90;95.07
19112;BME280;9688;51.906;8.376;2022-10-24T02:46:19;99782.84;;;15.88;94.66
19112;BME280;9688;51.906;8.376;2022-10-24T02:49:06;99777.72;;;15.85;94.84
19112;BME280;9688;51.906;8.376;2022-10-24T02:51:52;99772.63;;;15.82;94.57
19112;BME280;9688;51.906;8.376;2022-10-24T02:54:39;99771.91;;;15.80;94.36
19112;BME280;9688;51.906;8.376;2022-10-24T02:57:25;99777.25;;;15.80;94.58
19112;BME280;9688;51.906;8.376;2022-10-24T03:00:11;99766.69;;;15.78;94.00
19112;BME280;9688;51.906;8.376;2022-10-24T03:03:01;99774.66;;;15.78;94.61
19112;BME280;9688;51.906;8.376;2022-10-24T03:05:47;99768.50;;;15.78;94.06
19112;BME280;9688;51.906;8.376;2022-10-24T03:08:33;99765.84;;;15.78;93.66
19112;BME280;9688;51.906;8.376;2022-10-24T03:11:20;99766.69;;;15.78;94.04
19112;BME280;9688;51.906;8.376;2022-10-24T03:14:06;99769.34;;;15.78;93.75
19112;BME280;9688;51.906;8.376;2022-10-24T03:16:52;99770.19;;;15.79;93.75
19112;BME280;9688;51.906;8.376;2022-10-24T03:19:37;99780.84;;;15.79;93.20
19112;BME280;9688;51.906;8.376;2022-10-24T03:22:23;99771.78;;;15.81;93.52
19112;BME280;9688;51.906;8.376;2022-10-24T03:25:08;99782.44;;;15.81;93.81
19112;BME280;9688;51.906;8.376;2022-10-24T03:27:56;99777.09;;;15.81;93.16
19112;BME280;9688;51.906;8.376;2022-10-24T03:30:42;99777.84;;;15.83;93.88
19112;BME280;9688;51.906;8.376;2022-10-24T03:33:27;99784.88;;;15.84;93.25
19112;BME280;9688;51.906;8.376;2022-10-24T03:36:13;99788.28;;;15.87;93.12
19112;BME280;9688;51.906;8.376;2022-10-24T03:38:58;99775.81;;;15.87;93.75
19112;BME280;9688;51.906;8.376;2022-10-24T03:41:43;99768.56;;;15.89;93.59
19112;BME280;9688;51.906;8.376;2022-10-24T03:44:30;99765.88;;;15.89;92.91
19112;BME280;9688;51.906;8.376;2022-10-24T03:47:16;99760.31;;;15.92;93.50
19112;BME280;9688;51.906;8.376;2022-10-24T03:50:07;99763.00;;;15.92;93.26
19112;BME280;9688;51.906;8.376;2022-10-24T03:52:52;99765.66;;;15.92;93.07
19112;BME280;9688;51.906;8.376;2022-10-24T03:55:38;99769.06;;;15.94;93.14
19112;BME280;9688;51.906;8.376;2022-10-24T03:58:23;99767.25;;;15.95;92.90
19112;BME280;9688;51.906;8.376;2022-10-24T04:01:11;99763.59;;;15.96;92.49
19112;BME280;9688;51.906;8.376;2022-10-24T04:04:00;99772.47;;;15.96;92.18
19112;BME280;9688;51.906;8.376;2022-10-24T04:06:46;99772.69;;;15.93;92.75
19112;BME280;9688;51.906;8.376;2022-10-24T04:09:31;99772.81;;;15.92;93.02
19112;BME280;9688;51.906;8.376;2022-10-24T04:12:17;99770.38;;;15.89;92.78
19112;BME280;9688;51.906;8.376;2022-10-24T04:15:04;99757.38;;;15.84;92.50
19112;BME280;9688;51.906;8.376;2022-10-24T04:17:51;99764.75;;;15.80;92.91
19112;BME280;9688;51.906;8.376;2022-10-24T04:20:37;99763.25;;;15.76;92.44
19112;BME280;9688;51.906;8.376;2022-10-24T04:23:22;99774.16;;;15.73;92.82
19112;BME280;9688;51.906;8.376;2022-10-24T04:26:09;99784.28;;;15.68;92.63
19112;BME280;9688;51.906;8.376;2022-10-24T04:28:55;99782.81;;;15.64;92.69
19112;BME280;9688;51.906;8.376;2022-10-24T04:31:41;99783.97;;;15.60;92.83
19112;BME280;9688;51.906;8.376;2022-10-24T04:34:28;99787.84;;;15.56;92.65
19112;BME280;9688;51.906;8.376;2022-10-24T04:37:13;99780.81;;;15.55;93.43
19112;BME280;9688;51.906;8.376;2022-10-24T04:40:00;99788.06;;;15.53;93.36
19112;BME280;9688;51.906;8.376;2022-10-24T04:42:50;99781.97;;;15.51;92.65
19112;BME280;9688;51.906;8.376;2022-10-24T04:45:36;99774.97;;;15.50;92.99
19112;BME280;9688;51.906;8.376;2022-10-24T04:48:21;99777.63;;;15.50;93.22
19112;BME280;9688;51.906;8.376;2022-10-24T04:51:08;99782.13;;;15.49;92.65
19112;BME280;9688;51.906;8.376;2022-10-24T04:53:54;99783.81;;;15.50;93.07
19112;BME280;9688;51.906;8.376;2022-10-24T04:56:39;99789.22;;;15.49;93.12
19112;BME280;9688;51.906;8.376;2022-10-24T04:59:25;99787.53;;;15.48;93.12
19112;BME280;9688;51.906;8.376;2022-10-24T05:02:10;99783.91;;;15.49;92.68
19112;BME280;9688;51.906;8.376;2022-10-24T05:04:56;99775.81;;;15.50;92.76
19112;BME280;9688;51.906;8.376;2022-10-24T05:07:43;99779.94;;;15.54;92.71
19112;BME280;9688;51.906;8.376;2022-10-24T05:10:29;99778.88;;;15.57;92.96
19112;BME280;9688;51.906;8.376;2022-10-24T05:13:15;99785.69;;;15.61;92.34
19112;BME280;9688;51.906;8.376;2022-10-24T05:16:00;99776.63;;;15.64;92.39
19112;BME280;9688;51.906;8.376;2022-10-24T05:18:46;99772.69;;;15.69;92.72
19112;BME280;9688;51.906;8.376;2022-10-24T05:21:32;99781.91;;;15.76;92.23
19112;BME280;9688;51.906;8.376;2022-10-24T05:24:19;99769.94;;;15.82;92.00
19112;BME280;9688;51.906;8.376;2022-10-24T05:27:04;99774.84;;;15.88;91.49
19112;BME280;9688;51.906;8.376;2022-10-24T05:29:50;99768.22;;;15.94;91.57
19112;BME280;9688;51.906;8.376;2022-10-24T05:32:36;99759.00;;;15.98;91.10
19112;BME280;9688;51.906;8.376;2022-10-24T05:35:22;99753.44;;;16.01;90.77
19112;BME280;9688;51.906;8.376;2022-10-24T05:38:08;99756.72;;;16.04;91.23
19112;BME280;9688;51.906;8.376;2022-10-24T05:40:54;99751.28;;;16.06;90.87
19112;BME280;9688;51.906;8.376;2022-10-24T05:43:40;99753.63;;;16.11;90.85
19112;BME280;9688;51.906;8.376;2022-10-24T05:46:26;99754.34;;;16.13;90.43
19112;BME280;9688;51.906;8.376;2022-10-24T05:49:12;99755.06;;;16.15;90.70
19112;BME280;9688;51.906;8.376;2022-10-24T05:51:59;99760.31;;;16.16;90.67
19112;BME280;9688;51.906;8.376;2022-10-24T05:54:45;99770.00;;;16.17;90.33
19112;BME280;9688;51.906;8.376;2022-10-24T05:57:32;99755.69;;;16.18;89.65
19112;BME280;9688;51.906;8.376;2022-10-24T06:00:18;99761.00;;;16.18;89.62
19112;BME280;9688;51.906;8.376;2022-10-24T06:03:04;99778.75;;;16.19;89.92
19112;BME280;9688;51.906;8.376;2022-10-24T06:05:50;99770.50;;;16.22;89.05
19112;BME280;9688;51.906;8.376;2022-10-24T06:08:36;99772.94;;;16.25;89.26
19112;BME280;9688;51.906;8.376;2022-10-24T06:11:22;99768.34;;;16.27;88.54
19112;BME280;9688;51.906;8.376;2022-10-24T06:14:10;99776.22;;;16.29;88.99
19112;BME280;9688;51.906;8.376;2022-10-24T06:16:56;99772.47;;;16.32;88.46
19112;BME280;9688;51.906;8.376;2022-10-24T06:19:42;99785.56;;;16.35;88.03
19112;BME280;9688;51.906;8.376;2022-10-24T06:22:31;99786.06;;;16.40;88.21
19112;BME280;9688;51.906;8.376;2022-10-24T06:25:17;99789.38;;;16.43;87.46
19112;BME280;9688;51.906;8.376;2022-10-24T06:28:03;99795.31;;;16.47;87.12
19112;BME280;9688;51.906;8.376;2022-10-24T06:30:52;99791.34;;;16.53;87.01
19112;BME280;9688;51.906;8.376;2022-10-24T06:33:38;99799.09;;;16.56;86.13
19112;BME280;9688;51.906;8.376;2022-10-24T06:36:24;99813.03;;;16.59;86.58
19112;BME280;9688;51.906;8.376;2022-10-24T06:39:09;99818.16;;;16.62;86.32
19112;BME280;9688;51.906;8.376;2022-10-24T06:41:55;99821.56;;;16.64;86.23
19112;BME280;9688;51.906;8.376;2022-10-24T06:44:41;99824.84;;;16.68;85.45
19112;BME280;9688;51.906;8.376;2022-10-24T06:47:28;99830.81;;;16.71;85.14
19112;BME280;9688;51.906;8.376;2022-10-24T06:50:14;99837.00;;;16.72;85.09
19112;BME280;9688;51.906;8.376;2022-10-24T06:52:59;99839.34;;;16.77;84.71
19112;BME280;9688;51.906;8.376;2022-10-24T06:55:45;99838.38;;;16.78;84.82
19112;BME280;9688;51.906;8.376;2022-10-24T06:58:31;99831.09;;;16.80;85.19
19112;BME280;9688;51.906;8.376;2022-10-24T07:01:19;99833.63;;;16.81;84.41
19112;BME280;9688;51.906;8.376;2022-10-24T07:04:07;99835.22;;;16.84;84.42
19112;BME280;9688;51.906;8.376;2022-10-24T07:06:52;99844.72;;;16.88;84.04
19112;BME280;9688;51.906;8.376;2022-10-24T07:09:38;99847.13;;;16.91;84.59
19112;BME280;9688;51.906;8.376;2022-10-24T07:12:24;99846.91;;;16.94;83.73
19112;BME280;9688;51.906;8.376;2022-10-24T07:15:11;99851.16;;;16.97;84.02
19112;BME280;9688;51.906;8.376;2022-10-24T07:17:57;99842.75;;;17.01;84.05
19112;BME280;9688;51.906;8.376;2022-10-24T07:20:45;99853.19;;;17.04;83.85
19112;BME280;9688;51.906;8.376;2022-10-24T07:23:31;99860.75;;;17.10;83.16
19112;BME280;9688;51.906;8.376;2022-10-24T07:26:18;99860.38;;;17.15;83.38
19112;BME280;9688;51.906;8.376;2022-10-24T07:29:04;99854.59;;;17.21;82.68
19112;BME280;9688;51.906;8.376;2022-10-24T07:31:51;99855.78;;;17.28;82.51
19112;BME280;9688;51.906;8.376;2022-10-24T07:34:39;99855.28;;;17.34;82.27
19112;BME280;9688;51.906;8.376;2022-10-24T07:37:27;99854.69;;;17.42;82.12
19112;BME280;9688;51.906;8.376;2022-10-24T07:40:15;99852.50;;;17.47;81.81
19112;BME280;9688;51.906;8.376;2022-10-24T07:43:03;99858.34;;;17.52;81.22
19112;BME280;9688;51.906;8.376;2022-10-24T07:45:50;99865.88;;;17.58;81.36
19112;BME280;9688;51.906;8.376;2022-10-24T07:48:37;99865.38;;;17.65;81.14
19112;BME280;9688;51.906;8.376;2022-10-24T07:51:26;99852.25;;;17.73;80.83
19112;BME280;9688;51.906;8.376;2022-10-24T07:54:14;99857.00;;;17.80;80.61
19112;BME280;9688;51.906;8.376;2022-10-24T07:57:00;99860.03;;;17.87;80.25
19112;BME280;9688;51.906;8.376;2022-10-24T07:59:48;99860.25;;;17.95;79.95
19112;BME280;9688;51.906;8.376;2022-10-24T08:02:33;99868.13;;;18.08;79.92
19112;BME280;9688;51.906;8.376;2022-10-24T08:05:19;99859.22;;;18.19;79.61
19112;BME280;9688;51.906;8.376;2022-10-24T08:08:05;99859.31;;;18.28;79.28
19112;BME280;9688;51.906;8.376;2022-10-24T08:10:52;99852.22;;;18.39;78.66
19112;BME280;9688;51.906;8.376;2022-10-24T08:13:38;99852.53;;;18.45;78.66
19112;BME280;9688;51.906;8.376;2022-10-24T08:16:24;99839.63;;;18.50;78.31
19112;BME280;9688;51.906;8.376;2022-10-24T08:19:11;99832.22;;;18.54;78.28
19112;BME280;9688;51.906;8.376;2022-10-24T08:21:58;99843.13;;;18.62;78.03
19112;BME280;9688;51.906;8.376;2022-10-24T08:24:44;99831.75;;;18.70;77.67
19112;BME280;9688;51.906;8.376;2022-10-24T08:27:31;99833.53;;;18.81;77.38
19112;BME280;9688;51.906;8.376;2022-10-24T08:30:17;99833.72;;;18.89;77.08
19112;BME280;9688;51.906;8.376;2022-10-24T08:33:03;99830.25;;;18.98;76.40
19112;BME280;9688;51.906;8.376;2022-10-24T08:35:48;99836.66;;;19.07;76.27
19112;BME280;9688;51.906;8.376;2022-10-24T08:38:34;99833.03;;;19.17;75.91
19112;BME280;9688;51.906;8.376;2022-10-24T08:41:28;99823.59;;;19.23;75.16
19112;BME280;9688;51.906;8.376;2022-10-24T08:44:27;99823.53;;;19.34;74.72
19112;BME280;9688;51.906;8.376;2022-10-24T08:47:21;99817.63;;;19.41;74.63
19112;BME280;9688;51.906;8.376;2022-10-24T08:50:23;99822.44;;;19.47;74.15
19112;BME280;9688;51.906;8.376;2022-10-24T08:53:11;99831.50;;;19.46;73.93
19112;BME280;9688;51.906;8.376;2022-10-24T08:56:00;99830.75;;;19.44;73.73
19112;BME280;9688;51.906;8.376;2022-10-24T08:58:46;99841.50;;;19.44;73.84
19112;BME280;9688;51.906;8.376;2022-10-24T09:01:40;99833.56;;;19.42;73.57
19112;BME280;9688;51.906;8.376;2022-10-24T09:04:33;99838.53;;;19.47;73.50
19112;BME280;9688;51.906;8.376;2022-10-24T09:07:21;99840.28;;;19.57;73.44
19112;BME280;9688;51.906;8.376;2022-10-24T09:10:14;99847.25;;;19.70;72.75
19112;BME280;9688;51.906;8.376;2022-10-24T09:13:11;99855.34;;;19.79;72.74
19112;BME280;9688;51.906;8.376;2022-10-24T09:15:59;99843.91;;;19.87;72.08
19112;BME280;9688;51.906;8.376;2022-10-24T09:18:50;99848.69;;;19.83;71.90
19112;BME280;9688;51.906;8.376;2022-10-24T09:21:39;99848.56;;;19.85;71.65
19112;BME280;9688;51.906;8.376;2022-10-24T09:24:35;99859.69;;;19.80;71.62
19112;BME280;9688;51.906;8.376;2022-10-24T09:27:25;99847.56;;;19.76;71.74
19112;BME280;9688;51.906;8.376;2022-10-24T09:30:15;99855.00;;;19.73;71.57
19112;BME280;9688;51.906;8.376;2022-10-24T09:33:13;99856.13;;;19.70;71.72
19112;BME280;9688;51.906;8.376;2022-10-24T09:36:03;99858.13;;;19.68;71.53
19112;BME280;9688;51.906;8.376;2022-10-24T09:38:50;99858.88;;;19.59;71.58
19112;BME280;9688;51.906;8.376;2022-10-24T09:41:38;99864.69;;;19.54;71.54
19112;BME280;9688;51.906;8.376;2022-10-24T09:44:39;99863.22;;;19.50;71.50
19112;BME280;9688;51.906;8.376;2022-10-24T09:47:37;99875.22;;;19.46;71.53
19112;BME280;9688;51.906;8.376;2022-10-24T09:50:31;99875.63;;;19.42;71.54
19112;BME280;9688;51.906;8.376;2022-10-24T09:53:23;99890.00;;;19.41;71.50
19112;BME280;9688;51.906;8.376;2022-10-24T09:56:12;99883.66;;;19.42;70.95
19112;BME280;9688;51.906;8.376;2022-10-24T09:59:16;99892.09;;;19.37;71.15
19112;BME280;9688;51.906;8.376;2022-10-24T10:02:21;99892.63;;;19.31;71.11
19112;BME280;9688;51.906;8.376;2022-10-24T10:05:19;99894.63;;;19.29;70.92
19112;BME280;9688;51.906;8.376;2022-10-24T10:08:09;99904.72;;;19.25;71.15
19112;BME280;9688;51.906;8.376;2022-10-24T10:11:03;99893.56;;;19.20;70.87
19112;BME280;9688;51.906;8.376;2022-10-24T10:13:52;99902.00;;;19.15;70.93
19112;BME280;9688;51.906;8.376;2022-10-24T10:16:41;99904.94;;;19.12;70.96
19112;BME280;9688;51.906;8.376;2022-10-24T10:19:30;99903.97;;;19.13;70.79
19112;BME280;9688;51.906;8.376;2022-10-24T10:22:23;99901.28;;;19.13;70.79
19112;BME280;9688;51.906;8.376;2022-10-24T10:25:27;99906.53;;;19.15;70.80
19112;BME280;9688;51.906;8.376;2022-10-24T10:28:22;99908.53;;;19.23;70.52
19112;BME280;9688;51.906;8.376;2022-10-24T10:31:09;99903.63;;;19.28;70.32
19112;BME280;9688;51.906;8.376;2022-10-24T10:34:11;99908.31;;;19.35;70.15
19112;BME280;9688;51.906;8.376;2022-10-24T10:37:18;99915.38;;;19.36;70.68
19112;BME280;9688;51.906;8.376;2022-10-24T10:40:22;99918.47;;;19.32;70.24
19112;BME280;9688;51.906;8.376;2022-10-24T10:43:21;99946.50;;;19.28;70.41
19112;BME280;9688;51.906;8.376;2022-10-24T10:46:21;99944.41;;;19.31;70.65
19112;BME280;9688;51.906;8.376;2022-10-24T10:49:17;99939.66;;;19.35;70.27
19112;BME280;9688;51.906;8.376;2022-10-24T10:52:11;99938.06;;;19.32;70.76
19112;BME280;9688;51.906;8.376;2022-10-24T10:55:07;99929.03;;;19.33;70.77
19112;BME280;9688;51.906;8.376;2022-10-24T10:58:04;99935.59;;;19.41;70.68
19112;BME280;9688;51.906;8.376;2022-10-24T11:01:04;99928.69;;;19.48;70.67
19112;BME280;9688;51.906;8.376;2022-10-24T11:03:59;99926.72;;;19.50;70.31
19112;BME280;9688;51.906;8.376;2022-10-24T11:06:52;99931.97;;;19.51;70.50
19112;BME280;9688;51.906;8.376;2022-10-24T11:09:42;99934.19;;;19.46;70.30
19112;BME280;9688;51.906;8.376;2022-10-24T11:12:33;99943.34;;;19.44;70.57
19112;BME280;9688;51.906;8.376;2022-10-24T11:15:22;99945.19;;;19.43;70.61
19112;BME280;9688;51.906;8.376;2022-10-24T11:18:14;99949.94;;;19.39;70.48
19112;BME280;9688;51.906;8.376;2022-10-24T11:21:05;99954.81;;;19.46;70.61
19112;BME280;9688;51.906;8.376;2022-10-24T11:23:53;99946.34;;;19.50;70.48
19112;BME280;9688;51.906;8.376;2022-10-24T11:26:44;99944.78;;;19.48;70.25
19112;BME280;9688;51.906;8.376;2022-10-24T11:29:33;99960.16;;;19.46;70.31
19112;BME280;9688;51.906;8.376;2022-10-24T11:32:25;99958.41;;;19.35;70.53
19112;BME280;9688;51.906;8.376;2022-10-24T11:35:24;99951.00;;;19.27;70.67
19112;BME280;9688;51.906;8.376;2022-10-24T11:38:15;99955.38;;;19.28;70.86
19112;BME280;9688;51.906;8.376;2022-10-24T11:41:18;99959.16;;;19.47;70.85
19112;BME280;9688;51.906;8.376;2022-10-24T11:44:18;99961.88;;;19.56;70.33
19112;BME280;9688;51.906;8.376;2022-10-24T11:47:26;99961.88;;;19.56;70.22
19112;BME280;9688;51.906;8.376;2022-10-24T11:50:24;99961.31;;;19.53;70.17
19112;BME280;9688;51.906;8.376;2022-10-24T11:53:19;99962.84;;;19.46;70.21
19112;BME280;9688;51.906;8.376;2022-10-24T11:56:11;99956.19;;;19.40;70.40
19112;BME280;9688;51.906;8.376;2022-10-24T11:59:00;99958.97;;;19.38;70.36
19112;BME280;9688;51.906;8.376;2022-10-24T12:01:57;99959.16;;;19.47;70.40
19112;BME280;9688;51.906;8.376;2022-10-24T12:05:07;99958.63;;;19.53;70.01
19112;BME280;9688;51.906;8.376;2022-10-24T12:08:17;99958.63;;;19.53;69.91
19112;BME280;9688;51.906;8.376;2022-10-24T12:11:29;99959.22;;;19.56;70.15
19112;BME280;9688;51.906;8.376;2022-10-24T12:14:42;99964.72;;;19.55;69.71
19112;BME280;9688;51.906;8.376;2022-10-24T12:17:59;99961.84;;;19.47;69.77
19112;BME280;9688;51.906;8.376;2022-10-24T12:20:49;99977.38;;;19.43;69.74
19112;BME280;9688;51.906;8.376;2022-10-24T12:23:39;99968.13;;;19.36;70.56
19112;BME280;9688;51.906;8.376;2022-10-24T12:26:26;99974.13;;;19.28;71.27
19112;BME280;9688;51.906;8.376;2022-10-24T12:29:20;99974.94;;;19.19;71.47
19112;BME280;9688;51.906;8.376;2022-10-24T12:32:22;99987.88;;;19.14;72.39
19112;BME280;9688;51.906;8.376;2022-10-24T12:41:54;99982.66;;;18.80;73.80
19112;BME280;9688;51.906;8.376;2022-10-24T12:44:45;99981.94;;;18.78;74.03
19112;BME280;9688;51.906;8.376;2022-10-24T12:47:38;99990.97;;;18.77;74.50
19112;BME280;9688;51.906;8.376;2022-10-24T12:50:58;99989.47;;;18.73;74.85
19112;BME280;9688;51.906;8.376;2022-10-24T12:54:13;99986.69;;;18.75;74.94
19112;BME280;9688;51.906;8.376;2022-10-24T12:57:21;99982.41;;;18.72;75.03
19112;BME280;9688;51.906;8.376;2022-10-24T13:00:22;99983.03;;;18.76;74.53
19112;BME280;9688;51.906;8.376;2022-10-24T13:03:17;99981.41;;;18.84;74.03
19112;BME280;9688;51.906;8.376;2022-10-24T13:06:13;99982.88;;;18.88;73.59
19112;BME280;9688;51.906;8.376;2022-10-24T13:09:25;99976.41;;;18.91;73.68
19112;BME280;9688;51.906;8.376;2022-10-24T13:12:31;99970.28;;;19.00;73.41
19112;BME280;9688;51.906;8.376;2022-10-24T13:15:28;99970.75;;;19.05;72.65
19112;BME280;9688;51.906;8.376;2022-10-24T13:18:27;99979.50;;;19.07;72.64
19112;BME280;9688;51.906;8.376;2022-10-24T13:21:25;99968.66;;;19.09;72.47
19112;BME280;9688;51.906;8.376;2022-10-24T13:24:21;99976.94;;;19.06;72.20
19112;BME280;9688;51.906;8.376;2022-10-24T13:27:24;99983.28;;;19.05;72.05
19112;BME280;9688;51.906;8.376;2022-10-24T13:30:30;99979.03;;;19.02;72.68
19112;BME280;9688;51.906;8.376;2022-10-24T13:33:40;99983.66;;;19.00;72.23
19112;BME280;9688;51.906;8.376;2022-10-24T13:36:30;99981.84;;;19.01;72.44
19112;BME280;9688;51.906;8.376;2022-10-24T13:39:19;99986.50;;;18.99;72.33
19112;BME280;9688;51.906;8.376;2022-10-24T13:42:28;99977.72;;;18.97;72.09
19112;BME280;9688;51.906;8.376;2022-10-24T13:45:22;99981.50;;;18.94;72.45
19112;BME280;9688;51.906;8.376;2022-10-24T13:48:10;99991.63;;;18.90;72.34
19112;BME280;9688;51.906;8.376;2022-10-24T13:51:06;99988.97;;;18.90;72.29
19112;BME280;9688;51.906;8.376;2022-10-24T13:53:56;99999.41;;;18.93;72.17
19112;BME280;9688;51.906;8.376;2022-10-24T13:56:45;99984.44;;;18.91;72.26
19112;BME280;9688;51.906;8.376;2022-10-24T13:59:36;100002.22;;;18.92;72.36
19112;BME280;9688;51.906;8.376;2022-10-24T14:02:25;99996.13;;;18.90;72.72
19112;BME280;9688;51.906;8.376;2022-10-24T14:05:28;99989.06;;;18.89;72.54
19112;BME280;9688;51.906;8.376;2022-10-24T14:08:20;99979.94;;;18.91;72.77
19112;BME280;9688;51.906;8.376;2022-10-24T14:11:13;99987.84;;;18.93;72.60
19112;BME280;9688;51.906;8.376;2022-10-24T14:14:01;99991.25;;;18.95;72.33
19112;BME280;9688;51.906;8.376;2022-10-24T14:17:04;99991.50;;;18.92;72.48
19112;BME280;9688;51.906;8.376;2022-10-24T14:19:52;99987.38;;;18.88;72.39
19112;BME280;9688;51.906;8.376;2022-10-24T14:22:40;99986.06;;;18.82;72.59
19112;BME280;9688;51.906;8.376;2022-10-24T14:25:30;99991.69;;;18.79;72.57
19112;BME280;9688;51.906;8.376;2022-10-24T14:28:22;99987.44;;;18.77;72.46
19112;BME280;9688;51.906;8.376;2022-10-24T14:31:20;99998.16;;;18.77;72.29
19112;BME280;9688;51.906;8.376;2022-10-24T14:34:19;99992.91;;;18.75;72.68
19112;BME280;9688;51.906;8.376;2022-10-24T14:37:07;99998.38;;;18.73;72.62
19112;BME280;9688;51.906;8.376;2022-10-24T14:39:57;99995.06;;;18.70;72.53
19112;BME280;9688;51.906;8.376;2022-10-24T14:42:44;99987.88;;;18.70;72.49
19112;BME280;9688;51.906;8.376;2022-10-24T14:45:31;100013.56;;;18.73;72.72
19112;BME280;9688;51.906;8.376;2022-10-24T14:48:20;100005.66;;;18.71;72.57
19112;BME280;9688;51.906;8.376;2022-10-24T14:51:13;100005.19;;;18.66;72.84
19112;BME280;9688;51.906;8.376;2022-10-24T14:54:03;99996.44;;;18.64;72.79
19112;BME280;9688;51.906;8.376;2022-10-24T14:56:52;100003.50;;;18.65;72.87
19112;BME280;9688;51.906;8.376;2022-10-24T14:59:43;99994.47;;;18.66;73.39
19112;BME280;9688;51.906;8.376;2022-10-24T15:02:34;100002.16;;;18.71;73.34
19112;BME280;9688;51.906;8.376;2022-10-24T15:05:30;100003.84;;;18.72;73.25
19112;BME280;9688;51.906;8.376;2022-10-24T15:08:25;100007.34;;;18.72;73.32
19112;BME280;9688;51.906;8.376;2022-10-24T15:11:17;100005.53;;;18.73;73.39
19112;BME280;9688;51.906;8.376;2022-10-24T15:14:32;100003.09;;;18.70;73.83
19112;BME280;9688;51.906;8.376;2022-10-24T15:17:26;100012.38;;;18.66;73.84
19112;BME280;9688;51.906;8.376;2022-10-24T15:20:16;100015.56;;;18.60;74.13
19112;BME280;9688;51.906;8.376;2022-10-24T15:23:04;100011.56;;;18.54;74.22
19112;BME280;9688;51.906;8.376;2022-10-24T15:26:07;100020.22;;;18.46;74.99